Latest Weather Observations for Maria Island

IDT60801

Issued at 7:51 pm EDT Tuesday 11 December 2018 (issued every 10 minutes, with the page automatically refreshed every 10 minutes)

About weather observations | Map of weather stations | Latest weather observations for TAS | Other Formats
Station Details ID: 092124 Name: MARIA ISLAND (POINT LESUEUR) Lat: -42.66 Lon: 148.02 Height: 28.0 m
Data from the previous 72 hours. | See also: Recent months at Maria Island
Date/Time
EDT
Temp
°C
App
Temp
°C
Dew
Point
°C
Rel
Hum
%
Delta-T
°C
Wind Press
QNH
hPa
Press
MSL
hPa
Rain since
9am
mm
Dir  Spd
km/h
Gust
km/h
Spd
kts
Gust
kts
11/07:30pm 16.1 14.2 9.1 63 3.6 ESE 9 19 5 10 1019.3 1019.3 0.0
11/07:00pm 15.9 12.2 10.0 68 3.1 N 20 24 11 13 1019.0 1019.0 0.0
11/06:30pm 16.3 14.8 9.3 63 3.6 NW 7 22 4 12 1019.1 1019.1 0.0
11/06:00pm 17.1 15.6 9.0 59 4.2 SW 7 11 4 6 1019.3 1019.3 0.0
11/05:30pm 16.1 12.4 8.1 59 4.0 ESE 17 20 9 11 1019.3 1019.3 0.0
11/05:00pm 16.4 12.4 8.9 61 3.8 ESE 20 28 11 15 1019.5 1019.5 0.0
11/04:30pm 15.9 11.4 8.4 61 3.8 ESE 22 26 12 14 1019.8 1019.8 0.0
11/04:00pm 16.2 11.4 8.7 61 3.8 ESE 24 32 13 17 1019.8 1019.8 0.0
11/03:30pm 15.9 11.0 8.6 62 3.7 ESE 24 30 13 16 1019.9 1019.9 0.0
11/03:00pm 16.0 11.1 8.5 61 3.8 ESE 24 28 13 15 1020.1 1020.1 0.0
11/02:30pm 15.9 11.4 8.4 61 3.8 ESE 22 28 12 15 1020.4 1020.4 0.0
11/02:00pm 15.8 11.3 8.5 62 3.7 ESE 22 28 12 15 1020.5 1020.5 0.0
11/01:30pm 16.1 11.9 8.3 60 4.0 ESE 20 26 11 14 1020.7 1020.7 0.0
11/01:00pm 15.7 11.5 8.4 62 3.7 E 20 26 11 14 1020.9 1020.9 0.0
11/12:30pm 16.0 12.1 8.7 62 3.7 E 19 24 10 13 1020.8 1020.8 0.0
11/12:00pm 15.8 12.2 8.5 62 3.7 E 17 22 9 12 1021.0 1021.0 0.0
11/11:30am 15.7 12.1 8.4 62 3.7 ESE 17 22 9 12 1021.2 1021.2 0.0
11/11:00am 15.5 13.3 8.0 61 3.8 SE 9 17 5 9 1021.2 1021.2 0.0
11/10:30am 15.0 13.0 7.1 59 3.9 SE 7 13 4 7 1021.3 1021.3 0.0
11/10:00am 14.8 12.5 7.4 61 3.6 SSE 9 11 5 6 1021.3 1021.3 0.0
11/09:30am 14.8 13.0 8.1 64 3.4 S 7 11 4 6 1021.3 1021.3 0.0
11/09:00am 14.0 11.8 8.0 67 3.0 SSW 9 11 5 6 1021.2 1021.2 0.0
11/08:30am 14.1 11.7 8.5 69 2.8 SSW 11 13 6 7 1020.8 1020.8 0.0
11/08:00am 13.7 11.3 8.7 72 2.5 SSW 11 15 6 8 1020.6 1020.6 0.0
11/07:30am 13.4 10.2 8.3 71 2.5 SSW 15 20 8 11 1020.3 1020.3 0.0
11/07:00am 12.9 9.5 7.8 71 2.5 SSW 15 17 8 9 1020.1 1020.1 0.0
11/06:30am 12.7 8.9 7.6 71 2.5 S 17 20 9 11 1020.0 1020.0 0.0
11/06:00am 12.2 9.6 7.7 74 2.2 SSW 11 15 6 8 1019.9 1019.9 0.0
11/05:30am 11.9 8.9 7.6 75 2.1 SSW 13 17 7 9 1019.5 1019.5 0.0
11/05:00am 12.1 8.8 8.0 76 2.0 SSW 15 19 8 10 1019.3 1019.3 0.0
11/04:30am 12.2 8.5 8.1 76 2.0 SSW 17 20 9 11 1019.2 1019.2 0.0
11/04:00am 12.4 8.7 8.1 75 2.1 SSW 17 20 9 11 1019.1 1019.1 0.0
11/03:30am 12.4 8.2 8.3 76 2.0 SSW 20 24 11 13 1019.0 1019.0 0.0
11/03:00am 12.6 8.5 8.5 76 2.0 SSW 20 24 11 13 1019.1 1019.1 0.0
11/02:30am 12.8 8.3 8.5 75 2.1 SSW 22 26 12 14 1019.1 1019.1 0.0
11/02:00am 12.9 8.0 8.6 75 2.1 SSW 24 28 13 15 1019.3 1019.3 0.0
11/01:30am 13.1 7.8 8.6 74 2.3 SSW 26 32 14 17 1019.3 1019.3 0.0
11/01:00am 13.4 8.1 8.3 71 2.5 SSW 26 30 14 16 1019.2 1019.2 0.0
11/12:30am 13.3 8.8 8.6 73 2.4 SSW 22 24 12 13 1019.4 1019.4 0.0
11/12:00am 13.5 8.3 9.0 74 2.3 SSW 26 30 14 16 1019.4 1019.4 0.0
 
Date/Time
EDT
Temp
°C
App
Temp
°C
Dew
Point
°C
Rel
Hum
%
Delta-T
°C
Wind Press
QNH
hPa
Press
MSL
hPa
Rain since
9am
mm
Dir  Spd
km/h
Gust
km/h
Spd
kts
Gust
kts
10/11:30pm 13.6 8.9 9.1 74 2.3 SSW 24 28 13 15 1019.4 1019.4 0.0
10/11:00pm 13.9 7.7 9.5 75 2.2 SSW 32 35 17 19 1019.1 1019.1 0.0
10/10:30pm 14.1 7.9 9.3 73 2.5 SSW 32 35 17 19 1019.0 1019.0 0.0
10/10:00pm 14.2 8.1 9.6 74 2.4 SSW 32 35 17 19 1018.7 1018.7 0.0
10/09:30pm 14.6 8.4 10.0 74 2.4 SSW 33 37 18 20 1018.6 1018.6 0.0
10/09:00pm 14.8 9.5 10.0 73 2.5 SSW 28 33 15 18 1018.1 1018.1 0.0
10/08:30pm 15.4 11.3 10.0 70 2.8 SSW 22 28 12 15 1017.7 1017.7 0.0
10/08:00pm 15.7 14.6 10.5 71 2.7 S 7 15 4 8 1017.5 1017.5 0.0
10/07:30pm 15.7 14.2 10.5 71 2.7 SE 9 13 5 7 1017.0 1017.0 0.0
10/07:00pm 16.3 14.9 10.8 70 2.9 NE 9 13 5 7 1016.4 1016.4 0.0
10/06:30pm 16.3 16.3 9.7 65 3.4 CALM 0 2 0 1 1016.3 1016.3 0.0
10/06:00pm 16.1 14.2 10.6 70 2.9 SE 11 19 6 10 1016.0 1016.0 0.0
10/05:30pm 15.8 12.4 10.6 71 2.8 ESE 19 22 10 12 1015.9 1015.9 0.0
10/05:00pm 16.3 12.2 8.5 60 4.0 SE 20 26 11 14 1015.7 1015.7 0.0
10/04:30pm 17.3 13.4 9.5 60 4.1 ESE 20 28 11 15 1015.2 1015.2 0.0
10/04:00pm 17.2 13.5 9.4 60 4.1 ESE 19 22 10 12 1015.1 1015.1 0.0
10/03:30pm 16.4 12.7 9.3 63 3.7 ESE 19 24 10 13 1015.0 1015.0 0.0
10/03:00pm 16.3 12.4 9.3 63 3.6 E 20 28 11 15 1014.8 1014.8 0.0
10/02:30pm 16.0 10.9 9.2 64 3.5 E 26 33 14 18 1014.5 1014.5 0.0
10/02:00pm 16.1 11.0 9.3 64 3.5 E 26 33 14 18 1014.3 1014.3 0.0
10/01:30pm 17.0 12.0 9.7 62 3.8 E 26 35 14 19 1014.4 1014.4 0.0
10/01:00pm 16.8 12.4 9.0 60 4.0 E 22 30 12 16 1014.6 1014.6 0.0
10/12:30pm 17.7 14.0 10.3 62 3.9 ESE 20 28 11 15 1014.5 1014.5 0.0
10/12:00pm 16.9 13.1 9.8 63 3.7 ESE 20 24 11 13 1014.7 1014.7 0.0
10/11:30am 17.3 14.4 10.9 66 3.4 E 17 20 9 11 1014.7 1014.7 0.0
10/11:00am 16.7 15.1 10.1 65 3.5 SE 9 11 5 6 1014.8 1014.8 0.0
10/10:30am 16.7 15.2 10.5 67 3.3 SSE 9 13 5 7 1014.7 1014.7 0.0
10/10:00am 16.9 14.8 11.0 68 3.2 S 13 15 7 8 1014.7 1014.7 0.0
10/09:30am 16.6 15.0 11.7 73 2.7 SSE 11 13 6 7 1014.8 1014.8 0.0
10/09:00am 15.7 13.7 11.5 76 2.3 SSE 13 15 7 8 1015.0 1015.0 0.0
10/08:30am 15.7 14.0 12.3 80 1.9 SSE 13 15 7 8 1014.8 1014.8 0.0
10/08:00am 15.2 13.5 12.3 83 1.6 S 13 17 7 9 1014.6 1014.6 0.0
10/07:30am 14.9 12.4 12.4 85 1.4 SSW 17 20 9 11 1014.4 1014.4 0.0
10/07:00am 14.1 10.6 12.1 88 1.1 SSW 22 26 12 14 1014.3 1014.3 0.0
10/06:30am 14.3 11.4 12.3 88 1.1 SSW 19 20 10 11 1014.0 1014.0 0.0
10/06:00am 13.6 13.3 11.5 87 1.1 WSW 4 6 2 3 1013.8 1013.8 0.0
10/05:30am 14.1 13.4 12.0 87 1.1 NW 7 9 4 5 1013.5 1013.5 0.0
10/05:00am 14.0 12.9 11.9 87 1.1 N 9 11 5 6 1013.4 1013.4 0.0
10/04:30am 13.8 12.2 11.7 87 1.1 NNW 11 13 6 7 1013.3 1013.2 0.0
10/04:00am 13.7 12.4 11.4 86 1.2 NW 9 11 5 6 1013.3 1013.2 0.0
10/03:30am 14.1 12.3 10.9 81 1.7 N 11 13 6 7 1013.4 1013.4 0.0
10/03:00am 14.0 12.5 10.6 80 1.8 N 9 13 5 7 1013.9 1013.9 0.0
10/02:30am 13.8 12.7 10.8 82 1.6 NNE 7 11 4 6 1014.0 1014.0 0.0
10/02:00am 13.8 10.6 11.1 84 1.4 N 19 22 10 12 1014.3 1014.3 0.0
10/01:30am 13.9 11.1 11.4 85 1.3 N 17 20 9 11 1014.5 1014.5 0.0
10/01:00am 13.8 12.1 11.3 85 1.3 N 11 15 6 8 1015.1 1015.1 0.0
10/12:30am 13.7 12.8 11.2 85 1.3 NE 7 9 4 5 1015.5 1015.5 0.0
10/12:00am 13.7 12.3 11.0 84 1.4 NNE 9 11 5 6 1016.2 1016.2 0.0
 
Date/Time
EDT
Temp
°C
App
Temp
°C
Dew
Point
°C
Rel
Hum
%
Delta-T
°C
Wind Press
QNH
hPa
Press
MSL
hPa
Rain since
9am
mm
Dir  Spd
km/h
Gust
km/h
Spd
kts
Gust
kts
09/11:30pm 13.9 12.5 10.9 82 1.6 NNE 9 11 5 6 1016.6 1016.6 0.0
09/11:00pm 14.0 12.5 10.6 80 1.8 NNE 9 13 5 7 1016.9 1016.9 0.0
09/10:30pm 14.1 11.7 10.1 77 2.1 NE 13 15 7 8 1017.2 1017.2 0.0
09/10:00pm 14.3 11.8 9.7 74 2.4 NNE 13 15 7 8 1017.5 1017.5 0.0
09/09:30pm 14.3 13.8 9.5 73 2.5 NE 2 9 1 5 1017.4 1017.4 0.0
09/09:00pm 14.3 14.2 9.5 73 2.5 CALM 0 0 0 0 1017.3 1017.3 0.0
09/08:30pm 14.6 13.8 9.8 73 2.5 ENE 4 6 2 3 1017.3 1017.3 0.0
09/08:00pm 14.9 13.6 10.1 73 2.5 NNE 7 9 4 5 1017.4 1017.4 0.0
09/07:30pm 15.3 13.0 10.3 72 2.6 ENE 13 17 7 9 1017.3 1017.3 0.0
09/07:00pm 15.8 14.3 10.6 71 2.8 NW 9 11 5 6 1017.3 1017.3 0.0
09/06:30pm 15.9 12.8 10.2 69 3.0 E 17 20 9 11 1017.1 1017.1 0.0
09/06:00pm 15.8 12.2 9.9 68 3.1 E 19 24 10 13 1017.2 1017.2 0.0
09/05:30pm 15.9 13.2 10.2 69 3.0 E 15 24 8 13 1017.5 1017.5 0.0
09/05:00pm 15.7 11.6 10.2 70 2.9 ESE 22 28 12 15 1017.9 1017.9 0.0
09/04:30pm 15.7 12.1 10.5 71 2.7 ESE 20 26 11 14 1018.4 1018.4 0.0
09/04:00pm 16.1 12.6 10.2 68 3.1 ESE 19 24 10 13 1018.9 1018.9 0.0
09/03:30pm 15.8 12.3 10.3 70 2.9 ESE 19 22 10 12 1019.2 1019.2 0.0
09/03:00pm 15.4 14.9 10.8 74 2.4 SW 4 9 2 5 1019.5 1019.5 0.0
09/02:30pm 15.4 13.2 10.8 74 2.4 ESE 13 17 7 9 1019.6 1019.6 0.0
09/02:00pm 15.5 13.8 11.3 76 2.2 E 11 15 6 8 1019.8 1019.8 0.0
09/01:30pm 14.9 12.8 11.1 78 2.0 ESE 13 15 7 8 1020.2 1020.2 0.0
09/01:00pm 14.9 12.8 11.1 78 2.0 ESE 13 17 7 9 1020.5 1020.5 0.0
09/12:30pm 15.3 12.9 11.3 77 2.1 E 15 19 8 10 1020.6 1020.6 0.0
09/12:00pm 14.9 12.6 10.5 75 2.3 ESE 13 17 7 9 1021.0 1021.0 0.0
09/11:30am 14.8 13.2 10.2 74 2.4 E 9 13 5 7 1021.2 1021.2 0.0
09/11:00am 14.8 13.8 10.2 74 2.4 ESE 6 9 3 5 1021.5 1021.5 0.0
09/10:30am 14.9 13.8 10.5 75 2.3 SSE 7 9 4 5 1021.5 1021.5 0.0
09/10:00am 14.7 12.7 10.3 75 2.3 SSE 11 15 6 8 1021.4 1021.4 0.0
09/09:30am 14.5 12.8 9.9 74 2.4 SE 9 13 5 7 1021.5 1021.5 0.0
09/09:00am 14.4 12.4 10.2 76 2.2 SSE 11 15 6 8 1021.3 1021.3 0.4
09/08:30am 14.1 11.3 10.1 77 2.1 SSE 15 20 8 11 1021.1 1021.1 0.4
09/08:00am 13.8 10.2 10.0 78 2.0 SSE 19 22 10 12 1020.9 1020.9 0.4
09/07:30am 13.6 11.0 10.6 82 1.6 SSE 15 19 8 10 1020.7 1020.7 0.4
09/07:00am 13.5 10.7 11.2 86 1.2 SSE 17 24 9 13 1020.4 1020.4 0.4
09/06:30am 13.1 11.5 11.5 90 0.8 SE 11 17 6 9 1020.3 1020.3 0.4
09/06:00am 12.7 11.0 11.3 91 0.7 SSE 11 13 6 7 1020.2 1020.2 0.4
09/05:30am 12.5 10.4 11.2 92 0.7 SSE 13 17 7 9 1020.1 1020.1 0.4
09/05:00am 12.5 10.8 11.2 92 0.7 SE 11 15 6 8 1020.0 1020.0 0.4
09/04:30am 12.5 10.9 11.4 93 0.6 SSE 11 17 6 9 1020.0 1020.0 0.4
09/04:00am 12.4 11.1 11.3 93 0.6 SE 9 11 5 6 1019.8 1019.8 0.4
09/03:30am 12.3 10.2 11.2 93 0.6 SE 13 15 7 8 1019.7 1019.7 0.4
09/03:00am 12.3 10.6 11.2 93 0.6 SE 11 15 6 8 1019.8 1019.8 0.4
09/02:30am 12.5 10.4 11.2 92 0.7 SE 13 17 7 9 1019.9 1019.9 0.0
09/02:00am 12.8 11.2 11.5 92 0.7 SE 11 15 6 8 1019.9 1019.9 0.0
09/01:30am 12.8 11.2 11.5 92 0.7 SE 11 13 6 7 1019.9 1019.9 0.0
09/01:00am 12.9 10.9 11.6 92 0.7 SE 13 15 7 8 1019.8 1019.8 0.0
09/12:30am 13.1 11.5 11.7 91 0.7 SE 11 15 6 8 1020.0 1020.0 0.0
09/12:00am 13.3 11.8 11.9 91 0.7 SE 11 15 6 8 1019.9 1019.9 0.0
 
Date/Time
EDT
Temp
°C
App
Temp
°C
Dew
Point
°C
Rel
Hum
%
Delta-T
°C
Wind Press
QNH
hPa
Press
MSL
hPa
Rain since
9am
mm
Dir  Spd
km/h
Gust
km/h
Spd
kts
Gust
kts
08/11:30pm 13.5 11.6 11.7 89 1.0 SE 13 20 7 11 1019.8 1019.8 0.0
08/11:00pm 14.1 12.6 12.0 87 1.1 ESE 11 15 6 8 1019.7 1019.7 0.0
08/10:30pm 14.3 12.4 11.8 85 1.3 SE 13 15 7 8 1019.5 1019.5 0.0
08/10:00pm 14.8 12.5 11.9 83 1.6 SSE 15 19 8 10 1019.3 1019.3 0.0
08/09:30pm 15.1 12.6 12.2 83 1.6 S 17 20 9 11 1019.1 1019.1 0.0
08/09:00pm 15.1 12.6 12.2 83 1.6 S 17 22 9 12 1018.6 1018.6 0.0
08/08:30pm 15.2 12.7 12.3 83 1.6 SSE 17 20 9 11 1018.2 1018.2 0.0
08/08:00pm 15.2 12.1 12.3 83 1.6 SSE 20 24 11 13 1017.7 1017.7 0.0

Other Formats:

Comma delimited format used in spreadsheet applications
http://www.bom.gov.au/fwo/IDT60801/IDT60801.95988.axf

JavaScript Object Notation format (JSON) in row-major order
http://www.bom.gov.au/fwo/IDT60801/IDT60801.95988.json